Time;durP1;ratioP1;P1;durP2;ratioP2;P2;SDS_P1;SDS_P2;PMS_P1;PMS_P2;Temp;Humidity;BMP_temperature;BMP_pressure;BME280_temperature;BME280_humidity;BME280_pressure;Samples;Min_cycle;Max_cycle;Signal;HPM_P1;HPM_P2
2022/03/10 00:02:23;;;;;;;15.52;5.78;;;4.50;67.10;;;4.38;49.65;101772.88;5163865;28;20403;-71
2022/03/10 00:04:55;;;;;;;16.10;6.40;;;4.50;67.20;;;4.32;50.03;101781.06;5164144;28;20050;-69
2022/03/10 00:07:27;;;;;;;13.68;5.68;;;4.40;67.60;;;4.25;50.27;101780.47;5164267;28;20053;-71
2022/03/10 00:09:59;;;;;;;15.50;5.75;;;4.40;68.00;;;4.18;50.51;101785.97;5164267;28;20058;-71
2022/03/10 00:12:34;;;;;;;11.32;5.47;;;4.30;68.60;;;4.12;50.58;101788.97;5163963;28;20133;-70
2022/03/10 00:15:09;;;;;;;14.15;5.57;;;4.20;68.60;;;4.04;50.46;101796.13;5163822;28;20054;-69
2022/03/10 00:17:41;;;;;;;17.02;5.47;;;4.20;68.60;;;4.01;50.80;101793.31;5163428;28;20074;-69
2022/03/10 00:20:13;;;;;;;12.65;5.22;;;4.10;68.70;;;3.99;50.93;101796.56;5164200;28;20050;-70
2022/03/10 00:22:47;;;;;;;12.70;5.57;;;4.10;69.10;;;3.94;50.83;101806.50;5163586;28;20050;-71
2022/03/10 00:25:21;;;;;;;14.05;5.75;;;4.10;69.60;;;3.87;50.92;101793.94;5163206;28;20058;-72
2022/03/10 00:27:54;;;;;;;12.25;5.53;;;4.00;69.50;;;3.86;50.65;101804.13;5162564;28;20141;-71
2022/03/10 00:30:26;;;;;;;11.82;5.13;;;4.00;69.60;;;3.82;51.08;101797.81;5163265;28;20510;-72
2022/03/10 00:32:58;;;;;;;12.30;5.65;;;4.00;70.10;;;3.80;51.34;101799.41;5161771;28;20068;-72
2022/03/10 00:35:30;;;;;;;13.90;6.68;;;3.90;70.50;;;3.78;51.75;101800.94;5163319;28;20058;-72
2022/03/10 00:38:03;;;;;;;14.32;5.82;;;3.90;71.10;;;3.75;51.83;101800.72;5163098;28;20054;-72
2022/03/10 00:40:34;;;;;;;14.40;5.85;;;3.90;71.40;;;3.73;52.02;101803.19;5164074;28;20493;-72
2022/03/10 00:43:12;;;;;;;12.68;5.35;;;3.90;71.50;;;3.71;51.86;101802.13;5163482;28;20053;-72
2022/03/10 00:45:44;;;;;;;14.05;5.78;;;3.80;71.80;;;3.71;52.32;101802.13;5163545;28;20054;-72
2022/03/10 00:48:16;;;;;;;14.18;6.10;;;3.80;72.20;;;3.71;52.04;101803.81;5163373;28;20043;-71
2022/03/10 00:50:48;;;;;;;18.05;5.95;;;3.80;72.30;;;3.69;52.27;101797.66;5163458;28;20406;-72
2022/03/10 00:53:20;;;;;;;16.58;6.22;;;3.80;73.00;;;3.64;52.51;101807.59;5163622;28;20061;-72
2022/03/10 00:55:52;;;;;;;14.57;6.13;;;3.80;73.60;;;3.59;53.00;101805.47;5163573;28;20507;-72
2022/03/10 00:58:25;;;;;;;16.40;5.90;;;3.70;74.20;;;3.56;52.94;101798.38;5163213;28;20046;-72
2022/03/10 01:00:58;;;;;;;15.30;6.15;;;3.70;74.60;;;3.52;52.76;101797.25;5163350;28;20050;-71
2022/03/10 01:03:29;;;;;;;14.15;6.03;;;3.70;74.70;;;3.55;53.29;101806.88;5162989;28;20105;-72
2022/03/10 01:06:01;;;;;;;11.77;5.28;;;3.70;75.40;;;3.54;53.76;101800.84;5158447;28;20509;-72
2022/03/10 01:08:33;;;;;;;15.05;6.22;;;3.70;76.60;;;3.56;53.44;101807.78;5162879;28;20050;-71
2022/03/10 01:11:05;;;;;;;14.88;6.22;;;3.70;76.40;;;3.58;52.68;101811.38;5163636;28;20490;-72
2022/03/10 01:13:39;;;;;;;17.85;6.90;;;3.70;75.70;;;3.60;52.76;101812.41;5165074;28;20061;-72
2022/03/10 01:16:11;;;;;;;13.32;6.20;;;3.70;76.20;;;3.58;52.95;101812.25;5167638;28;20054;-71
2022/03/10 01:18:43;;;;;;;14.25;5.75;;;3.70;76.90;;;3.52;53.20;101807.56;5166730;28;20060;-71
2022/03/10 01:21:15;;;;;;;16.77;6.10;;;3.70;77.20;;;3.50;52.98;101805.63;5167313;28;20054;-71
2022/03/10 01:23:47;;;;;;;15.10;6.45;;;3.70;77.20;;;3.46;53.39;101806.16;5166928;28;20054;-72
2022/03/10 01:26:19;;;;;;;13.98;5.25;;;3.60;78.00;;;3.41;53.35;101803.22;5166808;28;20050;-72
2022/03/10 01:28:52;;;;;;;14.70;7.10;;;3.60;78.70;;;3.38;53.94;101808.13;5166752;28;20050;-72
2022/03/10 01:31:24;;;;;;;14.55;6.10;;;3.50;79.20;;;3.37;54.10;101805.41;5167213;28;20050;-72
2022/03/10 01:33:57;;;;;;;14.98;6.30;;;3.50;80.00;;;3.35;53.86;101802.72;5167197;28;20050;-72
2022/03/10 01:36:30;;;;;;;14.10;6.00;;;3.50;80.30;;;3.32;54.03;101801.56;5166918;28;20057;-72
2022/03/10 01:39:04;;;;;;;15.40;6.80;;;3.40;81.10;;;3.23;54.41;101801.75;5167294;28;20050;-71
2022/03/10 01:41:36;;;;;;;18.70;7.55;;;3.40;81.80;;;3.16;54.52;101797.78;5167276;28;20470;-72
2022/03/10 01:44:11;;;;;;;16.38;7.00;;;3.40;82.20;;;3.12;54.76;101802.56;5166973;28;20061;-71
2022/03/10 01:46:43;;;;;;;16.50;6.10;;;3.30;82.70;;;3.07;54.70;101803.88;5166672;28;20054;-71
2022/03/10 01:49:15;;;;;;;15.05;6.72;;;3.20;83.10;;;3.04;54.88;101808.78;5166799;28;20054;-71
2022/03/10 01:51:48;;;;;;;14.13;6.10;;;3.20;84.00;;;3.02;55.14;101800.03;5166942;28;20057;-72
2022/03/10 01:54:20;;;;;;;15.75;6.80;;;3.20;85.10;;;3.00;54.80;101797.34;5166786;28;20050;-73
2022/03/10 01:56:54;;;;;;;17.13;6.20;;;3.20;85.10;;;2.99;55.09;101796.41;5166698;28;20124;-71
2022/03/10 01:59:28;;;;;;;17.10;5.63;;;3.10;85.70;;;2.99;54.99;101796.41;5166737;28;20521;-72
2022/03/10 02:02:00;;;;;;;15.90;6.25;;;3.10;85.90;;;2.97;55.23;101787.66;5166537;28;20056;-71
2022/03/10 02:04:32;;;;;;;19.20;6.57;;;3.10;86.30;;;2.96;54.91;101798.75;5166617;28;20055;-71
2022/03/10 02:07:08;;;;;;;18.30;6.65;;;3.10;86.40;;;2.95;54.82;101793.50;5166459;28;20055;-71
2022/03/10 02:12:30;;;;;;;15.80;6.57;;;3.10;88.20;;;2.87;56.06;101789.38;5166592;28;20189;-71
2022/03/10 02:18:04;;;;;;;14.68;6.65;;;3.00;90.00;;;2.81;56.34;101782.06;5166203;28;20054;-72
2022/03/10 02:20:38;;;;;;;16.67;6.50;;;3.00;90.50;;;2.80;56.65;101781.91;5166286;28;20050;-71
2022/03/10 02:23:12;;;;;;;14.52;6.10;;;3.00;90.80;;;2.79;56.57;101785.28;5166150;28;20427;-73
2022/03/10 02:25:45;;;;;;;15.80;6.80;;;2.90;91.20;;;2.75;56.69;101784.16;5166255;28;20531;-72
2022/03/10 02:28:18;;;;;;;16.27;6.47;;;2.90;91.90;;;2.70;56.92;101780.28;5166248;28;20050;-72
2022/03/10 02:30:50;;;;;;;18.25;6.70;;;2.90;92.40;;;2.64;57.54;101780.69;5166145;28;20046;-73
2022/03/10 02:33:22;;;;;;;14.05;6.32;;;2.90;92.50;;;2.59;57.99;101775.91;5166033;28;20050;-71
2022/03/10 02:35:54;;;;;;;15.30;6.30;;;2.80;93.00;;;2.52;58.01;101774.53;5165961;28;20046;-73
2022/03/10 02:38:27;;;;;;;16.15;6.78;;;2.70;93.10;;;2.47;58.02;101772.34;5166015;28;20510;-71
2022/03/10 02:40:59;;;;;;;16.25;6.55;;;2.70;93.50;;;2.45;58.48;101780.84;5165662;28;20057;-70
2022/03/10 02:43:31;;;;;;;16.60;6.80;;;2.70;93.80;;;2.42;58.14;101778.03;5165599;28;20051;-70
2022/03/10 02:46:04;;;;;;;15.40;6.80;;;2.60;94.20;;;2.40;58.30;101784.69;5165844;28;20243;-70
2022/03/10 02:48:36;;;;;;;17.00;6.72;;;2.60;94.40;;;2.36;58.90;101786.91;5165817;28;20137;-70
2022/03/10 02:51:08;;;;;;;13.27;6.43;;;2.60;94.40;;;2.30;58.41;101784.72;5165986;28;20053;-72
2022/03/10 02:53:41;;;;;;;17.92;6.88;;;2.50;94.60;;;2.26;58.41;101779.19;5165744;28;20499;-70
2022/03/10 02:56:13;;;;;;;14.95;6.28;;;2.50;94.80;;;2.26;58.70;101789.47;5165743;28;20239;-69
2022/03/10 02:58:45;;;;;;;16.55;5.88;;;2.50;95.10;;;2.22;58.99;101790.91;5165491;28;20046;-70
2022/03/10 03:01:17;;;;;;;19.35;6.57;;;2.40;94.90;;;2.19;58.82;101793.22;5165813;28;20061;-70
2022/03/10 03:03:49;;;;;;;14.85;5.70;;;2.40;95.10;;;2.17;58.63;101795.66;5165090;28;20050;-71
2022/03/10 03:06:21;;;;;;;19.23;7.07;;;2.40;95.20;;;2.15;59.04;101792.06;5165230;28;20050;-70
2022/03/10 03:08:54;;;;;;;17.55;6.65;;;2.40;95.20;;;2.14;59.37;101794.47;5165183;28;20149;-73
2022/03/10 03:11:26;;;;;;;21.10;6.50;;;2.40;95.70;;;2.12;59.15;101796.03;5165548;28;20475;-73
2022/03/10 03:13:59;;;;;;;17.40;7.07;;;2.30;95.60;;;2.10;58.69;101805.31;5165219;28;20058;-72
2022/03/10 03:16:31;;;;;;;18.50;7.18;;;2.30;95.20;;;2.10;58.53;101795.03;5164921;28;20085;-71
2022/03/10 03:19:03;;;;;;;15.10;6.18;;;2.30;95.20;;;2.08;59.21;101797.44;5164747;28;20388;-71
2022/03/10 03:21:35;;;;;;;15.48;6.25;;;2.30;95.30;;;2.15;58.62;101791.13;5164726;28;20057;-71
2022/03/10 03:24:09;;;;;;;18.90;7.10;;;2.40;95.30;;;2.19;59.08;101788.06;5164879;28;20050;-71
2022/03/10 03:26:41;;;;;;;15.85;6.43;;;2.40;95.30;;;2.23;58.81;101789.22;5164793;28;20046;-71
2022/03/10 03:29:13;;;;;;;19.27;6.55;;;2.40;95.50;;;2.18;59.27;101794.88;5164476;28;20078;-70
2022/03/10 03:31:45;;;;;;;15.48;6.32;;;2.40;95.70;;;2.14;59.25;101795.38;5165107;28;20053;-71
2022/03/10 03:34:17;;;;;;;17.25;6.85;;;2.40;95.80;;;2.09;59.92;101793.22;5165081;28;20053;-71
2022/03/10 03:36:49;;;;;;;20.55;7.07;;;2.30;96.20;;;2.04;59.77;101789.34;5164003;28;20054;-71
2022/03/10 03:39:23;;;;;;;15.07;7.45;;;2.30;96.20;;;1.98;59.61;101791.41;5163946;28;20050;-70
2022/03/10 03:41:55;;;;;;;16.33;6.97;;;2.20;96.50;;;1.94;60.19;101784.19;5164807;28;20499;-70
2022/03/10 03:44:27;;;;;;;15.93;7.13;;;2.20;96.70;;;1.91;60.16;101789.97;5164488;28;20046;-71
2022/03/10 03:46:59;;;;;;;17.08;6.78;;;2.20;97.00;;;1.87;60.95;101793.94;5164221;28;20046;-71
2022/03/10 03:49:31;;;;;;;19.17;7.18;;;2.10;97.30;;;1.86;60.95;101793.81;5164604;28;20406;-71
2022/03/10 03:52:03;;;;;;;17.73;7.03;;;2.10;97.50;;;1.82;60.69;101796.91;5164888;28;20058;-71
2022/03/10 03:54:39;;;;;;;19.33;6.60;;;2.10;97.70;;;1.78;61.13;101803.47;5164460;28;20058;-71
2022/03/10 03:57:11;;;;;;;20.75;7.22;;;2.10;97.80;;;1.73;61.09;101799.59;5164072;28;20173;-70
2022/03/10 03:59:43;;;;;;;16.70;5.93;;;2.00;98.00;;;1.69;61.83;101796.63;5164812;28;20294;-71
2022/03/10 04:02:15;;;;;;;15.60;6.47;;;1.90;97.90;;;1.67;61.78;101793.91;5164328;28;20150;-71
2022/03/10 04:04:47;;;;;;;17.73;7.25;;;1.90;98.30;;;1.64;61.40;101793.66;5163888;28;20050;-70
2022/03/10 04:07:19;;;;;;;17.42;6.60;;;1.90;98.30;;;1.63;61.76;101797.03;5164382;28;20058;-72
2022/03/10 04:09:52;;;;;;;17.35;6.78;;;1.90;98.40;;;1.60;61.87;101791.59;5164375;28;20053;-70
2022/03/10 04:12:24;;;;;;;16.42;6.90;;;1.90;98.60;;;1.59;62.01;101794.94;5164346;28;20054;-71
2022/03/10 04:14:56;;;;;;;12.90;6.28;;;1.90;98.70;;;1.57;62.41;101784.53;5164000;28;20506;-73
2022/03/10 04:17:28;;;;;;;17.42;6.47;;;1.80;98.70;;;1.58;62.59;101794.03;5164160;28;20546;-72
2022/03/10 04:20:00;;;;;;;16.02;5.93;;;1.80;98.90;;;1.56;62.71;101790.41;5164421;28;20057;-72
2022/03/10 04:22:32;;;;;;;15.98;6.75;;;1.80;99.30;;;1.56;62.48;101799.78;5164657;28;20052;-72
2022/03/10 04:25:08;;;;;;;15.15;6.75;;;1.80;99.10;;;1.53;62.86;101800.44;5163851;28;20509;-73
2022/03/10 04:27:40;;;;;;;15.95;6.70;;;1.80;99.30;;;1.50;62.68;101799.25;5163828;28;20050;-72
2022/03/10 04:30:13;;;;;;;16.42;6.28;;;1.80;99.40;;;1.46;62.94;101807.50;5164478;28;20067;-73
2022/03/10 04:32:47;;;;;;;15.48;6.15;;;1.70;99.40;;;1.43;62.92;101807.22;5164251;28;20105;-72
2022/03/10 04:35:21;;;;;;;18.42;6.65;;;1.70;99.50;;;1.41;62.97;101808.75;5163738;28;20074;-73
2022/03/10 04:37:54;;;;;;;15.48;6.28;;;1.70;99.60;;;1.39;63.23;101816.34;5163570;28;20047;-73
2022/03/10 04:40:29;;;;;;;18.65;7.07;;;1.70;99.60;;;1.36;63.21;101806.66;5164063;28;20051;-73
2022/03/10 04:43:01;;;;;;;18.63;7.18;;;1.70;99.80;;;1.34;63.53;101812.44;5163982;28;20112;-72
2022/03/10 04:45:33;;;;;;;17.35;6.90;;;1.60;99.80;;;1.32;63.53;101814.00;5164248;28;20506;-72
2022/03/10 04:48:06;;;;;;;17.45;6.97;;;1.60;99.80;;;1.31;63.32;101810.53;5166001;28;20055;-73
2022/03/10 04:50:38;;;;;;;17.00;7.22;;;1.60;99.90;;;1.30;63.88;101816.44;5167786;28;20054;-73
2022/03/10 04:53:10;;;;;;;19.75;7.65;;;1.60;99.90;;;1.29;63.92;101824.88;5168151;28;20406;-72
2022/03/10 04:55:44;;;;;;;18.63;6.57;;;1.60;99.90;;;1.28;63.78;101823.09;5168109;28;20046;-72
2022/03/10 04:58:16;;;;;;;19.17;6.60;;;1.60;99.90;;;1.26;63.96;101824.63;5167182;28;20099;-73
2022/03/10 05:00:48;;;;;;;18.52;6.65;;;1.50;99.90;;;1.23;64.46;101823.44;5167671;28;20054;-72
2022/03/10 05:03:20;;;;;;;16.15;6.57;;;1.50;99.90;;;1.21;63.81;101831.03;5168558;28;20057;-73
2022/03/10 05:05:52;;;;;;;17.80;6.90;;;1.50;99.90;;;1.19;64.25;101830.00;5167809;28;20061;-73
2022/03/10 05:08:24;;;;;;;16.70;6.28;;;1.50;99.90;;;1.20;64.69;101821.53;5167562;28;20053;-72
2022/03/10 05:10:57;;;;;;;17.40;6.93;;;1.50;99.90;;;1.22;64.64;101819.09;5167803;28;20501;-73
2022/03/10 05:13:29;;;;;;;20.70;7.25;;;1.50;99.90;;;1.24;64.51;101818.47;5167471;28;20054;-72
2022/03/10 05:16:01;;;;;;;18.60;6.88;;;1.50;99.90;;;1.23;63.96;101824.34;5167498;28;20054;-73
2022/03/10 05:18:33;;;;;;;20.13;6.97;;;1.50;99.90;;;1.24;64.63;101826.19;5167264;28;20137;-73
2022/03/10 05:21:05;;;;;;;16.30;6.68;;;1.50;99.90;;;1.22;64.56;101827.69;5167777;28;20517;-73
2022/03/10 05:23:37;;;;;;;15.75;6.97;;;1.50;99.90;;;1.19;64.34;101835.13;5167348;28;20057;-72
2022/03/10 05:26:10;;;;;;;18.95;7.25;;;1.50;99.90;;;1.16;64.72;101832.28;5167209;28;20076;-73
2022/03/10 05:28:42;;;;;;;15.80;6.82;;;1.50;99.90;;;1.14;64.22;101832.91;5167226;28;20046;-72
2022/03/10 05:31:14;;;;;;;19.27;7.18;;;1.40;99.90;;;1.12;65.13;101832.78;5167623;28;20495;-73
2022/03/10 05:33:46;;;;;;;19.60;7.78;;;1.40;99.90;;;1.09;65.15;101835.97;5167220;28;20061;-73
2022/03/10 05:36:18;;;;;;;22.88;7.85;;;1.40;99.90;;;1.07;65.02;101828.91;5183528;23;20063;-73
2022/03/10 05:38:50;;;;;;;16.77;6.93;;;1.40;99.90;;;1.05;65.17;101835.59;5178199;28;20072;-73
2022/03/10 05:41:23;;;;;;;16.33;6.28;;;1.40;99.90;;;1.03;65.47;101834.53;5186938;28;20419;-73
2022/03/10 05:43:55;;;;;;;13.75;6.50;;;1.30;99.90;;;1.02;65.80;101837.84;5174568;28;20046;-72
2022/03/10 05:46:28;;;;;;;13.85;6.63;;;1.30;99.90;;;1.00;65.73;101840.31;5171997;28;20074;-72
2022/03/10 05:48:59;;;;;;;13.90;5.97;;;1.30;99.90;;;1.02;66.05;101843.00;5166352;28;20054;-72
2022/03/10 05:51:32;;;;;;;20.02;6.53;;;1.30;99.90;;;1.02;66.31;101843.00;5166487;28;20049;-72
2022/03/10 05:54:04;;;;;;;13.68;6.60;;;1.30;99.90;;;1.00;65.93;101850.56;5166659;28;20477;-72
2022/03/10 05:56:39;;;;;;;21.80;8.18;;;1.30;99.90;;;0.99;65.90;101847.88;5167359;28;20054;-72
2022/03/10 05:59:12;;;;;;;19.15;7.32;;;1.30;99.90;;;1.01;65.76;101841.19;5165274;28;20483;-72
2022/03/10 06:01:44;;;;;;;20.58;8.55;;;1.30;99.90;;;1.00;65.81;101858.28;5174011;28;20064;-73
2022/03/10 06:04:16;;;;;;;24.23;6.72;;;1.30;99.90;;;1.01;66.44;101851.47;5166277;28;20053;-72
2022/03/10 06:06:48;;;;;;;19.73;8.25;;;1.30;99.90;;;0.99;66.13;101850.44;5166202;28;20057;-72
2022/03/10 06:09:19;;;;;;;20.88;7.47;;;1.30;99.90;;;1.02;66.26;101853.28;5166347;28;20142;-73
2022/03/10 06:11:53;;;;;;;21.85;7.07;;;1.30;99.90;;;1.03;66.64;101850.81;5166291;28;20145;-72
2022/03/10 06:14:25;;;;;;;17.65;7.43;;;1.30;99.90;;;1.06;66.84;101838.28;5166519;28;20058;-72
2022/03/10 06:16:57;;;;;;;21.30;7.28;;;1.30;99.90;;;1.11;66.13;101837.78;5166413;28;20054;-73
2022/03/10 06:19:29;;;;;;;18.40;7.88;;;1.40;99.90;;;1.14;66.16;101838.97;5166157;28;20398;-72
2022/03/10 06:22:01;;;;;;;16.05;6.20;;;1.40;99.90;;;1.19;65.99;101844.50;5165705;28;20133;-72
2022/03/10 06:24:33;;;;;;;22.48;8.00;;;1.40;99.90;;;1.20;65.92;101842.06;5166346;28;20500;-73
2022/03/10 06:27:06;;;;;;;17.88;6.95;;;1.50;99.90;;;1.39;65.87;101841.13;5165659;28;20418;-73
2022/03/10 06:29:39;;;;;;;19.75;8.65;;;1.60;99.90;;;1.98;66.07;101850.56;5166015;28;20712;-72
2022/03/10 06:32:12;;;;;;;22.50;7.55;;;1.80;99.90;;;2.48;64.74;101848.78;5165751;28;20046;-73
2022/03/10 06:34:44;;;;;;;21.48;8.18;;;2.20;99.90;;;2.81;63.34;101856.75;5165330;28;20054;-72
2022/03/10 06:37:16;;;;;;;17.48;7.93;;;2.50;99.90;;;3.41;61.61;101859.94;5165172;28;20578;-72
2022/03/10 06:39:48;;;;;;;20.48;7.53;;;2.90;99.90;;;3.87;60.20;101863.56;5165351;28;20407;-72
2022/03/10 06:42:22;;;;;;;19.45;7.22;;;3.30;99.90;;;4.39;58.69;101867.63;5165237;28;20052;-73
2022/03/10 06:44:54;;;;;;;19.08;7.85;;;3.70;98.90;;;4.57;57.24;101879.34;5165128;28;20046;-72
2022/03/10 06:47:26;;;;;;;22.08;7.85;;;4.00;97.50;;;4.71;56.57;101871.75;5165114;28;20046;-73
2022/03/10 06:49:58;;;;;;;16.13;7.60;;;4.30;96.50;;;4.90;55.97;101880.09;5165742;28;20042;-72
2022/03/10 06:52:32;;;;;;;18.30;7.07;;;4.50;95.60;;;5.13;54.88;101869.75;5165283;28;20057;-73
2022/03/10 06:55:05;;;;;;;18.75;8.48;;;4.70;94.70;;;5.65;53.92;101870.94;5165222;28;20053;-72
2022/03/10 06:57:39;;;;;;;20.25;8.50;;;5.00;94.00;;;7.04;51.32;101871.88;5164727;28;20097;-73
2022/03/10 07:00:12;;;;;;;19.23;8.07;;;5.70;93.40;;;8.74;47.41;101865.31;5172922;28;20046;-73
2022/03/10 07:02:45;;;;;;;16.98;7.50;;;6.90;90.70;;;10.32;44.09;101875.06;5170382;28;20125;-72
2022/03/10 07:05:17;;;;;;;20.23;8.45;;;8.20;82.90;;;11.69;40.42;101876.75;5170916;28;20544;-73
2022/03/10 07:07:49;;;;;;;16.75;8.18;;;9.40;74.30;;;12.79;37.83;101874.75;5176891;28;20136;-75
2022/03/10 07:10:21;;;;;;;21.20;8.68;;;10.50;67.90;;;13.75;35.49;101884.84;5170057;28;20144;-74
2022/03/10 07:12:55;;;;;;;16.20;8.40;;;11.40;63.00;;;14.60;33.47;101887.19;5178963;28;20054;-73
2022/03/10 07:15:27;;;;;;;19.63;9.13;;;12.30;59.20;;;15.33;31.68;101883.59;5177587;28;20457;-73
2022/03/10 07:17:59;;;;;;;18.88;8.30;;;13.00;56.50;;;15.95;30.52;101894.31;5182671;28;20141;-73
2022/03/10 07:20:31;;;;;;;19.33;9.57;;;13.70;54.30;;;16.53;29.77;101886.34;5177917;28;20050;-72
2022/03/10 07:23:03;;;;;;;23.73;8.90;;;14.30;52.60;;;17.07;28.73;101890.44;5184172;28;20206;-73
2022/03/10 07:25:35;;;;;;;17.15;8.38;;;14.80;51.10;;;17.56;28.06;101892.56;5179550;28;20048;-72
2022/03/10 07:28:09;;;;;;;18.20;8.25;;;15.30;49.90;;;17.90;27.08;101899.53;5183056;28;20451;-70
2022/03/10 07:30:41;;;;;;;16.88;8.38;;;15.60;48.50;;;18.40;26.43;101893.53;5172713;28;20072;-69
2022/03/10 07:33:13;;;;;;;18.65;8.32;;;16.10;47.60;;;18.76;25.68;101892.50;5163539;28;20056;-70
2022/03/10 07:35:45;;;;;;;13.30;6.75;;;16.40;46.60;;;19.07;24.63;101896.59;5163286;28;20105;-70
2022/03/10 07:38:17;;;;;;;14.70;7.50;;;16.70;45.20;;;19.35;23.79;101903.22;5168439;28;20046;-69
2022/03/10 07:40:49;;;;;;;14.85;7.22;;;17.00;44.00;;;19.50;23.03;101906.13;5169442;28;20046;-69
2022/03/10 07:43:23;;;;;;;15.07;7.32;;;17.20;42.70;;;19.29;22.56;101906.66;5179823;28;20048;-70
2022/03/10 07:45:55;;;;;;;15.05;7.38;;;17.20;41.90;;;19.43;22.55;101896.28;5172656;28;20475;-70
2022/03/10 07:48:27;;;;;;;19.33;10.02;;;17.30;41.40;;;19.60;21.91;101900.13;5169090;28;20045;-70
2022/03/10 07:50:59;;;;;;;14.90;7.63;;;17.50;41.00;;;19.74;21.43;101898.56;5182286;28;20060;-70
2022/03/10 07:53:32;;;;;;;15.85;7.78;;;17.70;40.30;;;19.97;21.61;101898.91;5171582;28;20109;-72
2022/03/10 07:56:04;;;;;;;15.82;7.85;;;17.80;40.50;;;19.79;21.49;101894.25;5163330;28;20519;-70
2022/03/10 07:58:38;;;;;;;16.80;8.63;;;17.80;39.80;;;19.97;21.38;101887.44;5163019;28;20042;-72
2022/03/10 08:01:10;;;;;;;14.65;7.95;;;17.80;39.70;;;20.08;21.21;101891.09;5181705;28;20042;-71
2022/03/10 08:03:42;;;;;;;18.27;8.50;;;17.90;39.60;;;20.32;21.18;101887.88;5183429;28;20054;-70
2022/03/10 08:06:14;;;;;;;14.73;7.40;;;18.10;39.80;;;20.65;21.73;101890.06;5183511;28;20042;-71
2022/03/10 08:08:46;;;;;;;16.13;7.97;;;18.40;40.70;;;20.72;20.89;101891.91;5182364;28;20052;-72
2022/03/10 08:11:18;;;;;;;17.40;8.35;;;18.50;39.40;;;21.01;20.63;101893.97;5184128;28;20054;-71
2022/03/10 08:13:52;;;;;;;16.38;8.43;;;18.80;39.10;;;21.11;20.20;101882.53;5184266;28;20049;-71
2022/03/10 08:16:24;;;;;;;15.93;7.95;;;18.90;38.30;;;21.01;20.02;101886.00;5184125;28;20425;-69
2022/03/10 08:18:56;;;;;;;18.33;8.02;;;18.80;38.10;;;20.98;19.88;101885.97;5183468;28;20060;-69
2022/03/10 08:21:28;;;;;;;15.15;7.38;;;18.80;38.10;;;21.23;19.95;101880.00;5184187;28;20056;-69
2022/03/10 08:24:00;;;;;;;15.90;8.25;;;18.90;38.10;;;21.50;21.15;101879.34;5183928;28;20053;-69
2022/03/10 08:26:32;;;;;;;17.77;8.85;;;19.20;40.20;;;21.02;19.71;101877.19;5183934;28;20046;-68
2022/03/10 08:29:05;;;;;;;16.77;7.85;;;19.00;37.50;;;20.93;21.10;101877.06;5183658;28;20050;-70
2022/03/10 08:31:37;;;;;;;16.50;8.45;;;18.90;39.30;;;20.91;21.84;101879.72;5183994;28;20050;-69
2022/03/10 08:34:09;;;;;;;15.75;7.10;;;18.90;40.50;;;21.09;22.77;101879.88;5176082;28;20507;-74
2022/03/10 08:36:41;;;;;;;18.73;9.85;;;19.10;41.70;;;21.51;21.37;101877.59;5180583;28;20056;-71
2022/03/10 08:39:15;;;;;;;14.98;7.60;;;19.40;40.00;;;21.72;21.02;101872.44;5181152;28;20048;-68
2022/03/10 08:41:47;;;;;;;20.15;8.80;;;19.60;39.40;;;21.49;21.23;101863.44;5182508;28;20101;-70
2022/03/10 08:44:21;;;;;;;15.70;8.05;;;19.60;39.70;;;21.63;20.52;101856.44;5178423;28;20050;-72
2022/03/10 08:46:53;;;;;;;20.33;9.40;;;19.70;38.90;;;21.89;20.65;101870.75;5172389;28;20089;-68
2022/03/10 08:49:25;;;;;;;15.05;7.80;;;19.90;38.90;;;21.83;20.40;101860.09;5182162;28;20056;-69
2022/03/10 08:51:57;;;;;;;15.98;9.15;;;19.90;38.40;;;21.70;20.45;101860.91;5182635;28;20478;-69
2022/03/10 08:54:29;;;;;;;16.55;8.30;;;19.90;38.50;;;21.71;19.84;101860.03;5182585;28;20551;-67
2022/03/10 08:57:01;;;;;;;15.88;8.32;;;19.90;37.60;;;21.59;20.19;101855.56;5182644;28;20054;-67
2022/03/10 08:59:35;;;;;;;16.73;7.47;;;19.90;37.90;;;21.33;20.19;101863.34;5182421;28;20068;-69
2022/03/10 09:02:07;;;;;;;16.23;8.88;;;19.70;37.70;;;20.65;20.62;101849.44;5184261;28;20045;-71
2022/03/10 09:04:39;;;;;;;17.75;8.35;;;19.40;37.70;;;19.86;21.07;101860.81;5184045;28;20145;-68
2022/03/10 09:07:11;;;;;;;17.35;9.07;;;18.90;37.60;;;19.12;21.82;101856.16;5184232;28;20050;-67
2022/03/10 09:09:43;;;;;;;16.35;8.05;;;18.40;38.20;;;18.34;23.03;101853.81;5184684;28;20053;-68
2022/03/10 09:12:15;;;;;;;18.30;9.05;;;17.90;38.90;;;17.95;23.86;101854.78;5184327;28;20050;-68
2022/03/10 09:14:49;;;;;;;17.02;8.23;;;17.60;39.90;;;17.54;23.71;101844.19;5184224;28;20084;-69
2022/03/10 09:17:21;;;;;;;18.42;7.82;;;17.30;39.50;;;17.31;24.07;101848.00;5184043;28;20652;-68
2022/03/10 09:19:54;;;;;;;17.08;9.65;;;17.10;40.00;;;17.00;24.54;101851.63;5184325;28;20410;-68
2022/03/10 09:22:26;;;;;;;17.38;8.25;;;16.80;40.60;;;16.86;24.99;101853.03;5184500;28;20085;-68
2022/03/10 09:24:58;;;;;;;15.95;8.13;;;16.60;41.10;;;16.87;25.33;101854.81;5184287;28;20061;-68
2022/03/10 09:27:30;;;;;;;22.08;10.32;;;16.50;41.60;;;16.90;24.77;101850.53;5183579;28;20046;-69
2022/03/10 09:30:04;;;;;;;16.58;8.38;;;16.50;40.90;;;16.75;25.19;101847.47;5184446;28;20046;-68
2022/03/10 09:32:37;;;;;;;17.52;8.27;;;16.40;41.40;;;16.64;25.49;101844.53;5183998;28;20049;-67
2022/03/10 09:35:13;;;;;;;18.25;8.05;;;16.30;41.70;;;16.40;25.61;101842.13;5187052;28;20057;-67
2022/03/10 09:37:46;;;;;;;16.60;7.22;;;16.10;41.50;;;16.21;26.09;101834.56;5187393;28;20422;-68
2022/03/10 09:40:18;;;;;;;16.42;8.02;;;15.90;42.20;;;16.24;26.11;101835.56;5187710;28;20491;-68
2022/03/10 09:42:50;;;;;;;15.52;7.75;;;16.00;42.20;;;16.39;26.02;101834.19;5187731;28;20398;-67
2022/03/10 09:45:25;;;;;;;18.25;7.72;;;16.00;42.20;;;16.29;26.09;101835.66;5187598;28;20048;-67
2022/03/10 09:47:57;;;;;;;;;;;15.90;42.20;;;16.32;26.99;101827.88;5187860;28;20456;-71
2022/03/10 09:50:29;;;;;;;17.38;7.25;;;16.00;43.70;;;16.19;25.84;101821.38;5187441;28;20094;-70
2022/03/10 09:53:01;;;;;;;15.95;7.38;;;15.90;42.10;;;15.86;26.78;101825.69;5187408;28;20149;-70
2022/03/10 09:55:33;;;;;;;17.92;8.63;;;15.70;42.70;;;15.60;26.84;101824.84;5187203;28;20052;-71
2022/03/10 09:58:06;;;;;;;16.48;7.68;;;15.50;42.80;;;15.59;27.09;101820.44;5187100;28;20046;-69
2022/03/10 10:00:40;;;;;;;17.25;7.45;;;15.40;43.40;;;15.81;27.02;101827.28;5187222;28;20503;-69
2022/03/10 10:03:12;;;;;;;14.20;6.75;;;15.40;44.00;;;15.86;26.75;101816.03;5187654;28;20471;-70
2022/03/10 10:05:44;;;;;;;17.05;7.13;;;15.50;43.70;;;16.04;27.23;101830.56;5187266;28;20049;-70
2022/03/10 10:08:18;;;;;;;14.75;6.93;;;15.60;43.90;;;16.24;26.51;101817.16;5186861;28;20052;-71
2022/03/10 10:10:53;;;;;;;16.20;7.30;;;15.70;43.10;;;16.31;26.59;101814.69;5187234;28;20052;-72
2022/03/10 10:13:28;;;;;;;14.73;6.63;;;15.80;43.20;;;16.40;27.10;101821.06;5187358;28;20089;-71
2022/03/10 10:16:03;;;;;;;15.75;7.32;;;16.00;44.00;;;16.40;26.82;101817.56;5186765;28;20125;-70
2022/03/10 10:18:37;;;;;;;13.75;6.60;;;16.00;42.90;;;16.45;27.15;101808.06;5186878;28;20058;-71
2022/03/10 10:21:14;;;;;;;18.30;7.38;;;16.10;43.90;;;16.53;26.39;101812.66;5186676;28;20054;-71
2022/03/10 10:23:46;;;;;;;18.52;7.28;;;16.20;42.90;;;16.59;26.25;101813.69;5187034;28;20119;-70
2022/03/10 10:26:20;;;;;;;14.95;7.78;;;16.20;42.60;;;16.50;25.65;101815.22;5186740;28;20396;-69
2022/03/10 10:28:52;;;;;;;13.52;6.35;;;16.20;41.80;;;16.52;25.18;101813.50;5186434;28;20053;-69
2022/03/10 10:31:25;;;;;;;14.27;6.95;;;16.20;41.20;;;16.48;25.98;101803.75;5186705;28;20053;-70
2022/03/10 10:34:01;;;;;;;13.35;6.28;;;16.20;42.00;;;16.25;25.81;101804.88;5186501;28;20050;-68
2022/03/10 10:36:37;;;;;;;17.38;7.43;;;16.00;41.60;;;16.34;25.75;101799.84;5186647;28;20060;-68
2022/03/10 10:39:11;;;;;;;16.20;6.50;;;16.00;41.80;;;16.13;25.76;101804.53;5186704;28;20553;-69
2022/03/10 10:41:46;;;;;;;12.30;6.28;;;15.90;41.60;;;15.83;26.48;101797.53;5186363;28;20056;-70
2022/03/10 10:44:20;;;;;;;12.65;6.28;;;15.70;42.20;;;15.79;26.23;101797.44;5186265;28;20069;-70